CheckWX is a tool to help pilots better visualize weather data.  It is not intended as a substitute for an official pre-flight weather briefing.

12:21:35 UTC

KOXD METAR
Miami University Airport
Oxford, Ohio, USA
Current

26 mins ago

KOXD 221156Z AUTO 05008KT 10SM CLR 00/M02 A3035 RMK AO2 T00001016 10016 20000
Observed
Feb-22 @ 11:56 UTC
Wind
  • 050° at 8 KTS
Visibility
10 SM
Flight Rules
VFR
Cloud Levels
  • Clear skies
Temperature
C / 32°F
Dewpoint
-2°C / 28°F
Humidity
87%
Altimeter
30.35" Hg
Pressure
1027.82 hPa
Previous

46 mins ago

KOXD 221136Z AUTO 04007KT 10SM CLR 00/M01 A3034 RMK AO2 T00001014
Observed
Feb-22 @ 11:36 UTC
Wind
  • 040° at 7 KTS
Visibility
10 SM
Flight Rules
VFR
Cloud Levels
  • Clear skies
Temperature
C / 32°F
Dewpoint
-1°C / 30°F
Humidity
93%
Altimeter
30.34" Hg
Pressure
1027.42 hPa
Previous

1 hour ago

KOXD 221116Z AUTO 04007KT 10SM CLR 00/M01 A3035 RMK AO2 T00001015
Observed
Feb-22 @ 11:16 UTC
Wind
  • 040° at 7 KTS
Visibility
10 SM
Flight Rules
VFR
Cloud Levels
  • Clear skies
Temperature
C / 32°F
Dewpoint
-2°C / 28°F
Humidity
87%
Altimeter
30.35" Hg
Pressure
1027.82 hPa